Time;durP1;ratioP1;P1;durP2;ratioP2;P2;SDS_P1;SDS_P2;PMS_P1;PMS_P2;Temp;Humidity;BMP_temperature;BMP_pressure;BME280_temperature;BME280_humidity;BME280_pressure;Samples;Min_cycle;Max_cycle;Signal;HPM_P1;HPM_P2
2023/08/10 00:00:14;;;;;;;8.10;3.90;;;13.30;99.90;;;;;;4958578;29;20493;-60
2023/08/10 00:02:42;;;;;;;9.53;4.40;;;13.30;99.90;;;;;;4975821;28;20540;-60
2023/08/10 00:05:10;;;;;;;7.80;4.60;;;13.40;99.90;;;;;;4978473;28;20432;-59
2023/08/10 00:07:39;;;;;;;8.43;4.57;;;13.40;99.90;;;;;;4978754;28;20461;-59
2023/08/10 00:10:08;;;;;;;5.03;4.13;;;13.30;1.00;;;;;;4978057;28;20556;-59
2023/08/10 00:12:35;;;;;;;6.27;4.40;;;13.30;1.00;;;;;;4964632;28;20858;-59
2023/08/10 00:15:03;;;;;;;7.07;4.13;;;13.20;1.00;;;;;;4958925;29;20572;-60
2023/08/10 00:17:31;;;;;;;7.60;4.70;;;13.20;1.00;;;;;;4958599;28;20475;-60
2023/08/10 00:19:58;;;;;;;4.70;3.93;;;13.20;99.90;;;;;;4958796;29;20893;-60
2023/08/10 00:22:25;;;;;;;8.07;5.03;;;13.10;1.00;;;;;;4966132;28;20593;-59
2023/08/10 00:24:54;;;;;;;8.63;4.80;;;13.10;1.00;;;;;;4977814;28;20469;-60
2023/08/10 00:27:22;;;;;;;11.27;5.37;;;13.10;1.00;;;;;;4978550;28;20462;-59
2023/08/10 00:29:51;;;;;;;6.97;5.20;;;13.00;1.00;;;;;;4978338;28;20466;-59
2023/08/10 00:32:19;;;;;;;7.90;4.77;;;12.90;99.90;;;;;;4975405;28;20454;-59
2023/08/10 00:34:50;;;;;;;6.80;5.23;;;13.00;1.00;;;;;;4958943;29;20467;-60
2023/08/10 00:37:17;;;;;;;6.70;5.50;;;12.90;99.90;;;;;;4958722;28;20448;-60
2023/08/10 00:39:44;;;;;;;7.00;4.97;;;12.90;1.00;;;;;;4959384;29;20490;-67
2023/08/10 00:42:13;;;;;;;6.53;5.07;;;12.90;1.00;;;;;;4958691;29;20839;-67
2023/08/10 00:44:40;;;;;;;6.97;4.47;;;13.00;1.00;;;;;;4975439;28;20444;-67
2023/08/10 00:47:08;;;;;;;6.53;4.40;;;13.00;1.00;;;;;;4977760;28;20529;-67
2023/08/10 00:49:35;;;;;;;5.63;4.50;;;13.00;1.00;;;;;;4978077;28;20917;-67
2023/08/10 00:52:03;;;;;;;4.83;4.07;;;12.90;1.00;;;;;;4977762;28;20572;-67
2023/08/10 00:54:31;;;;;;;5.17;4.63;;;12.90;99.90;;;;;;4965042;28;20480;-67
2023/08/10 00:56:58;;;;;;;6.00;4.70;;;12.90;99.90;;;;;;4958340;28;20521;-67
2023/08/10 00:59:30;;;;;;;5.50;4.93;;;12.90;99.90;;;;;;4958460;29;20467;-67
2023/08/10 01:01:58;;;;;;;5.50;4.30;;;12.90;99.90;;;;;;4958480;29;20502;-67
2023/08/10 01:04:25;;;;;;;7.97;4.87;;;12.90;99.90;;;;;;4959096;28;20581;-67
2023/08/10 01:07:00;;;;;;;4.93;3.97;;;12.90;1.00;;;;;;4957937;29;20773;-67
2023/08/10 01:09:40;;;;;;;4.97;4.10;;;12.90;1.00;;;;;;4958442;28;20521;-66
2023/08/10 01:12:17;;;;;;;5.97;4.20;;;12.90;99.90;;;;;;4962638;28;20759;-67
2023/08/10 01:14:53;;;;;;;5.77;3.83;;;12.90;1.00;;;;;;4978966;28;20476;-67
2023/08/10 01:17:24;;;;;;;11.20;4.67;;;12.90;99.90;;;;;;4977681;28;20444;-67
2023/08/10 01:19:53;;;;;;;8.37;4.03;;;12.90;99.90;;;;;;4962121;29;20445;-67
2023/08/10 01:22:26;;;;;;;10.63;5.13;;;12.90;99.90;;;;;;4962260;28;20441;-67
2023/08/10 01:25:01;;;;;;;8.43;4.77;;;13.00;1.00;;;;;;4976563;28;20463;-67
2023/08/10 01:27:29;;;;;;;6.53;4.10;;;12.90;1.00;;;;;;4962075;29;20473;-66
2023/08/10 01:29:58;;;;;;;5.43;4.00;;;12.90;99.90;;;;;;4962039;28;20521;-66
2023/08/10 01:32:37;;;;;;;7.37;4.80;;;13.00;1.00;;;;;;4960962;28;20568;-67
2023/08/10 01:35:06;;;;;;;9.50;5.00;;;13.00;1.00;;;;;;4961234;29;20773;-67
2023/08/10 01:37:33;;;;;;;8.43;4.50;;;13.00;99.90;;;;;;4961681;28;20565;-67
2023/08/10 01:40:03;;;;;;;8.13;5.13;;;13.00;99.90;;;;;;4961937;28;20467;-67
2023/08/10 01:42:30;;;;;;;8.67;4.33;;;13.10;99.90;;;;;;4961317;28;20497;-67
2023/08/10 01:44:58;;;;;;;10.43;4.10;;;13.10;99.90;;;;;;4961401;28;20433;-66
2023/08/10 01:47:30;;;;;;;6.03;4.17;;;13.10;99.90;;;;;;4961485;28;20463;-67
2023/08/10 01:50:00;;;;;;;7.50;4.20;;;13.10;99.90;;;;;;4961672;29;20553;-65
2023/08/10 01:52:34;;;;;;;4.57;3.53;;;13.10;99.90;;;;;;4960992;29;20529;-64
2023/08/10 01:55:03;;;;;;;4.87;3.90;;;13.10;47.70;;;;;;4979508;28;20752;-67
2023/08/10 01:57:31;;;;;;;6.17;4.23;;;13.00;1.00;;;;;;4980805;28;20458;-67
2023/08/10 01:59:58;;;;;;;5.53;3.73;;;12.90;99.90;;;;;;4980745;28;20488;-66
2023/08/10 02:02:25;;;;;;;7.43;4.07;;;12.90;1.00;;;;;;4980680;28;20458;-67
2023/08/10 02:04:53;;;;;;;10.73;4.30;;;12.90;1.00;;;;;;4965754;28;20546;-67
2023/08/10 02:07:20;;;;;;;5.83;3.77;;;12.80;14.50;;;;;;4961280;28;20888;-68
2023/08/10 02:09:47;;;;;;;5.00;3.90;;;12.80;99.90;;;;;;4961143;28;20474;-68
2023/08/10 02:12:16;;;;;;;5.50;4.00;;;12.80;99.90;;;;;;4961264;29;20466;-67
2023/08/10 02:14:43;;;;;;;6.23;4.10;;;12.80;99.90;;;;;;4969455;28;20958;-67
2023/08/10 02:17:10;;;;;;;5.40;4.57;;;12.80;96.60;;;;;;4979994;28;20776;-67
2023/08/10 02:19:37;;;;;;;7.00;4.60;;;12.80;99.90;;;;;;4979998;28;20565;-67
2023/08/10 02:22:05;;;;;;;9.33;3.90;;;12.80;99.90;;;;;;4979960;28;20466;-67
2023/08/10 02:24:32;;;;;;;8.50;3.73;;;12.80;99.90;;;;;;4975407;28;20495;-67
2023/08/10 02:26:59;;;;;;;7.50;3.70;;;12.70;10.90;;;;;;4960696;28;20846;-67
2023/08/10 02:29:28;;;;;;;8.47;4.73;;;12.70;1.00;;;;;;4960993;29;20557;-67
2023/08/10 02:31:55;;;;;;;10.83;4.63;;;12.60;99.90;;;;;;4960406;29;20933;-66
2023/08/10 02:34:22;;;;;;;5.30;3.97;;;12.60;1.00;;;;;;4960156;29;20553;-67
2023/08/10 02:36:50;;;;;;;6.00;3.90;;;12.50;99.90;;;;;;4978166;28;20545;-67
2023/08/10 02:39:17;;;;;;;8.87;4.20;;;12.50;99.90;;;;;;4979576;28;20505;-67
2023/08/10 02:41:44;;;;;;;8.20;4.40;;;12.50;99.90;;;;;;4979991;28;20524;-67
2023/08/10 02:44:11;;;;;;;11.83;4.63;;;12.50;1.00;;;;;;4979943;28;20494;-67
2023/08/10 02:46:40;;;;;;;6.43;4.43;;;12.50;99.90;;;;;;4966304;28;20477;-67
2023/08/10 02:49:07;;;;;;;7.13;3.80;;;12.40;72.60;;;;;;4960516;28;20466;-67
2023/08/10 02:51:34;;;;;;;7.03;4.67;;;12.40;91.70;;;;;;4960080;29;20497;-67
2023/08/10 02:54:01;;;;;;;6.33;3.47;;;12.40;99.90;;;;;;4960542;28;20459;-66
2023/08/10 02:56:28;;;;;;;4.90;4.03;;;12.40;60.50;;;;;;4966888;28;20831;-66
2023/08/10 02:58:56;;;;;;;13.97;5.90;;;12.50;99.90;;;;;;4959707;28;20780;-67
2023/08/10 03:01:23;;;;;;;6.30;4.03;;;12.50;99.90;;;;;;4960157;29;20754;-67
2023/08/10 03:03:51;;;;;;;5.13;4.10;;;12.50;1.00;;;;;;4960386;29;20499;-67
2023/08/10 03:06:19;;;;;;;8.13;4.97;;;12.60;1.00;;;;;;4959515;29;20593;-67
2023/08/10 03:08:46;;;;;;;6.20;4.67;;;12.60;1.00;;;;;;4972411;28;20922;-67
2023/08/10 03:11:14;;;;;;;7.70;4.37;;;12.70;73.40;;;;;;4978960;28;20508;-67
2023/08/10 03:13:41;;;;;;;8.20;3.67;;;12.70;99.90;;;;;;4979625;28;20501;-67
2023/08/10 03:16:09;;;;;;;4.67;4.00;;;12.70;1.00;;;;;;4979399;28;20496;-67
2023/08/10 03:18:36;;;;;;;5.67;4.17;;;12.70;99.90;;;;;;4970107;28;20490;-67
2023/08/10 03:21:04;;;;;;;9.90;5.50;;;12.70;98.80;;;;;;4959634;28;20975;-67
2023/08/10 03:23:32;;;;;;;5.70;4.20;;;12.70;1.00;;;;;;4959375;29;20791;-67
2023/08/10 03:25:59;;;;;;;4.53;4.10;;;12.70;1.00;;;;;;4959855;29;20775;-66
2023/08/10 03:28:27;;;;;;;8.20;5.00;;;12.70;1.00;;;;;;4961909;28;20521;-67
2023/08/10 03:30:54;;;;;;;5.80;4.30;;;12.70;99.90;;;;;;4978482;28;20466;-66
2023/08/10 03:33:21;;;;;;;8.90;4.90;;;12.70;99.90;;;;;;4977031;28;20439;-68
2023/08/10 03:35:48;;;;;;;7.60;4.13;;;12.70;99.90;;;;;;4978992;28;20556;-67
2023/08/10 03:38:17;;;;;;;6.70;5.07;;;12.70;99.90;;;;;;4978893;28;20747;-67
2023/08/10 03:40:44;;;;;;;8.93;4.30;;;12.70;76.50;;;;;;4960991;28;20466;-67
2023/08/10 03:43:11;;;;;;;6.30;4.57;;;12.70;39.00;;;;;;4959638;28;20466;-67
2023/08/10 03:45:38;;;;;;;9.30;4.40;;;12.70;1.00;;;;;;4959739;29;20494;-67
2023/08/10 03:48:06;;;;;;;4.87;4.10;;;12.70;1.00;;;;;;4959742;29;20549;-67
2023/08/10 03:50:33;;;;;;;5.63;4.23;;;12.80;1.00;;;;;;4970004;28;20531;-67
2023/08/10 03:53:00;;;;;;;9.37;4.90;;;12.80;1.00;;;;;;4977938;28;20468;-67
2023/08/10 03:55:29;;;;;;;7.50;4.90;;;12.80;99.90;;;;;;4978807;28;20489;-68
2023/08/10 03:57:56;;;;;;;7.10;4.63;;;12.80;99.90;;;;;;4978653;28;20887;-67
2023/08/10 04:00:23;;;;;;;8.17;4.80;;;12.80;99.90;;;;;;4971153;28;20471;-67
2023/08/10 04:02:50;;;;;;;5.93;4.70;;;12.80;99.90;;;;;;4958733;29;20557;-68
2023/08/10 04:05:18;;;;;;;5.13;4.63;;;12.80;99.90;;;;;;4958716;28;20495;-67
2023/08/10 04:07:45;;;;;;;6.13;4.30;;;12.80;99.90;;;;;;4959451;28;20575;-68
2023/08/10 04:10:12;;;;;;;6.60;4.83;;;12.80;99.90;;;;;;4958796;28;20954;-67
2023/08/10 04:12:41;;;;;;;6.67;4.67;;;12.70;1.00;;;;;;4978624;28;20489;-67
2023/08/10 04:15:09;;;;;;;7.17;5.50;;;12.80;1.00;;;;;;4977913;28;20505;-68
2023/08/10 04:17:37;;;;;;;6.10;3.90;;;12.70;99.90;;;;;;4978156;28;20556;-67
2023/08/10 04:20:08;;;;;;;6.10;4.80;;;12.70;99.90;;;;;;4978502;28;20565;-67
2023/08/10 04:22:36;;;;;;;8.33;5.00;;;12.70;1.00;;;;;;4962049;28;20943;-68
2023/08/10 04:25:04;;;;;;;6.63;5.10;;;12.70;99.90;;;;;;4962016;28;20505;-67
2023/08/10 04:27:31;;;;;;;6.70;4.67;;;12.60;1.00;;;;;;4959180;28;20557;-66
2023/08/10 04:30:00;;;;;;;6.33;5.07;;;12.50;1.00;;;;;;4958930;29;20463;-66
2023/08/10 04:32:27;;;;;;;7.03;5.33;;;12.50;1.00;;;;;;4957508;28;20471;-66
2023/08/10 04:34:57;;;;;;;6.27;5.07;;;12.40;1.00;;;;;;4958488;28;20768;-67
2023/08/10 04:37:24;;;;;;;7.30;5.50;;;12.40;1.00;;;;;;4956715;28;20473;-67
2023/08/10 04:39:52;;;;;;;6.30;5.43;;;12.40;95.90;;;;;;4957934;29;20467;-67
2023/08/10 04:42:19;;;;;;;6.97;4.87;;;12.30;1.00;;;;;;4963473;28;20763;-67
2023/08/10 04:44:46;;;;;;;8.47;5.00;;;12.30;99.90;;;;;;4979346;28;20501;-68
2023/08/10 04:47:15;;;;;;;7.77;5.13;;;12.30;99.90;;;;;;4966027;28;20879;-67
2023/08/10 04:49:42;;;;;;;7.07;5.13;;;12.30;1.00;;;;;;4960489;28;20467;-67
2023/08/10 04:52:09;;;;;;;9.70;5.20;;;12.30;1.00;;;;;;4960713;29;20490;-66
2023/08/10 04:54:37;;;;;;;6.73;5.30;;;12.20;1.00;;;;;;4960483;29;20834;-67
2023/08/10 04:57:05;;;;;;;8.63;5.10;;;12.20;99.90;;;;;;4960887;29;20487;-67
2023/08/10 04:59:32;;;;;;;8.00;5.10;;;12.20;1.00;;;;;;4960796;28;20462;-66
2023/08/10 05:01:59;;;;;;;8.93;5.40;;;12.20;99.90;;;;;;4961498;29;20465;-67
2023/08/10 05:04:27;;;;;;;7.00;5.37;;;12.20;99.90;;;;;;4962122;29;20953;-67
2023/08/10 05:06:55;;;;;;;7.43;4.70;;;12.20;99.90;;;;;;4962259;29;20550;-66
2023/08/10 05:09:22;;;;;;;5.60;4.60;;;12.20;1.00;;;;;;4961858;29;20829;-68
2023/08/10 05:11:50;;;;;;;8.20;4.53;;;12.20;99.90;;;;;;4962407;29;20913;-67
2023/08/10 05:14:17;;;;;;;7.90;5.10;;;12.20;99.90;;;;;;4962537;29;20497;-68
2023/08/10 05:16:45;;;;;;;6.00;4.50;;;12.30;99.90;;;;;;4962046;29;20957;-68
2023/08/10 05:19:12;;;;;;;8.60;5.47;;;12.30;99.30;;;;;;4962088;29;20568;-67
2023/08/10 05:21:40;;;;;;;9.30;5.90;;;12.20;1.00;;;;;;4962316;29;20462;-68
2023/08/10 05:24:08;;;;;;;7.40;5.07;;;12.30;1.00;;;;;;4962058;29;20904;-67
2023/08/10 05:26:35;;;;;;;9.83;5.70;;;12.30;1.00;;;;;;4962090;29;20892;-67
2023/08/10 05:29:02;;;;;;;7.50;5.20;;;12.30;99.90;;;;;;4961620;28;20740;-67
2023/08/10 05:31:30;;;;;;;10.90;5.90;;;12.40;99.90;;;;;;4962055;29;20565;-68
2023/08/10 05:33:57;;;;;;;7.43;4.93;;;12.40;92.70;;;;;;4961793;29;20467;-68
2023/08/10 05:36:24;;;;;;;7.03;4.63;;;12.50;99.80;;;;;;4961890;28;20884;-68
2023/08/10 05:38:53;;;;;;;6.90;5.63;;;12.60;99.90;;;;;;4960603;29;20490;-67
2023/08/10 05:41:20;;;;;;;7.00;5.03;;;12.70;1.00;;;;;;4960485;28;20465;-66
2023/08/10 05:43:48;;;;;;;8.40;5.70;;;12.80;1.00;;;;;;4960611;28;20837;-65
2023/08/10 05:46:15;;;;;;;6.90;5.30;;;12.90;99.90;;;;;;4961778;28;20462;-66
2023/08/10 05:48:42;;;;;;;6.40;5.00;;;13.00;99.90;;;;;;4961485;29;20889;-65
2023/08/10 05:51:09;;;;;;;10.70;6.20;;;13.10;99.90;;;;;;4961383;28;21004;-65
2023/08/10 05:53:37;;;;;;;8.67;6.47;;;13.20;1.00;;;;;;4961558;29;20494;-65
2023/08/10 05:56:06;;;;;;;8.50;5.50;;;13.30;1.00;;;;;;4960485;28;20494;-65
2023/08/10 05:58:33;;;;;;;8.23;5.47;;;13.40;1.00;;;;;;4959887;29;20763;-64
2023/08/10 06:01:01;;;;;;;9.30;5.50;;;13.50;99.90;;;;;;4959158;29;20441;-64
2023/08/10 06:03:28;;;;;;;9.70;5.70;;;13.70;99.90;;;;;;4959807;29;20463;-65
2023/08/10 06:05:56;;;;;;;11.17;6.10;;;13.90;1.00;;;;;;4959774;29;20880;-64
2023/08/10 06:08:23;;;;;;;11.20;7.13;;;14.00;99.90;;;;;;4959054;29;20467;-66
2023/08/10 06:10:51;;;;;;;7.77;6.00;;;14.20;1.00;;;;;;4959597;28;20474;-64
2023/08/10 06:13:19;;;;;;;8.73;6.23;;;14.30;99.90;;;;;;4960282;29;20466;-66
2023/08/10 06:15:47;;;;;;;7.83;6.13;;;14.40;1.00;;;;;;4960647;29;20486;-66
2023/08/10 06:18:16;;;;;;;10.60;6.60;;;14.60;1.00;;;;;;4960450;29;20561;-65
2023/08/10 06:20:44;;;;;;;7.13;5.50;;;14.80;1.00;;;;;;4959839;28;20467;-65
2023/08/10 06:23:12;;;;;;;8.10;5.70;;;14.70;99.90;;;;;;4959584;29;20474;-64
2023/08/10 06:25:39;;;;;;;12.33;5.87;;;15.10;20.00;;;;;;4958942;29;20499;-65
2023/08/10 06:28:08;;;;;;;10.10;6.40;;;15.30;99.90;;;;;;4958959;29;20525;-65
2023/08/10 06:30:36;;;;;;;8.10;5.47;;;15.50;1.00;;;;;;4958578;28;20486;-65
2023/08/10 06:33:04;;;;;;;8.67;5.70;;;15.30;99.90;;;;;;4957100;28;20494;-65
2023/08/10 06:35:35;;;;;;;7.57;5.70;;;15.40;99.90;;;;;;4975525;28;20458;-65
2023/08/10 06:38:04;;;;;;;6.63;5.47;;;15.50;99.90;;;;;;4976555;28;20887;-65
2023/08/10 06:40:31;;;;;;;5.83;4.60;;;15.70;99.90;;;;;;4977315;28;20461;-65
2023/08/10 06:42:59;;;;;;;6.93;4.90;;;16.10;99.90;;;;;;4977498;28;20462;-65
2023/08/10 06:45:26;;;;;;;7.97;4.83;;;16.40;99.90;;;;;;4976956;28;20498;-66
2023/08/10 06:47:54;;;;;;;8.23;5.23;;;16.70;99.90;;;;;;4977631;28;20462;-66
2023/08/10 06:50:22;;;;;;;7.43;4.70;;;16.90;99.90;;;;;;4973881;28;20489;-66
2023/08/10 06:52:49;;;;;;;8.90;4.90;;;17.10;37.80;;;;;;4957444;28;20483;-66
2023/08/10 06:55:16;;;;;;;12.60;5.27;;;17.10;1.00;;;;;;4957361;29;20884;-65
2023/08/10 06:57:44;;;;;;;9.50;5.60;;;16.90;1.00;;;;;;4958211;29;20586;-66
2023/08/10 07:00:19;;;;;;;8.40;4.70;;;17.40;1.00;;;;;;4958451;29;20777;-66
2023/08/10 07:02:48;;;;;;;7.80;5.33;;;17.60;1.00;;;;;;4957300;28;20505;-65
2023/08/10 07:05:17;;;;;;;7.67;4.80;;;18.00;1.00;;;;;;4958111;29;20938;-64
2023/08/10 07:07:44;;;;;;;9.33;4.80;;;18.10;1.00;;;;;;4957982;28;20474;-65
2023/08/10 07:10:13;;;;;;;6.00;4.77;;;18.20;1.00;;;;;;4956300;28;20462;-65
2023/08/10 07:12:41;;;;;;;8.47;5.23;;;18.60;1.00;;;;;;4955933;28;20624;-65
2023/08/10 07:15:09;;;;;;;4.30;3.70;;;18.70;1.00;;;;;;4957342;29;20483;-66
2023/08/10 07:17:37;;;;;;;6.93;4.50;;;18.60;1.00;;;;;;4957524;28;20499;-66
2023/08/10 07:20:05;;;;;;;7.53;5.00;;;18.90;1.00;;;;;;4958830;29;20757;-67
2023/08/10 07:22:34;;;;;;;10.00;5.33;;;19.10;1.00;;;;;;4969997;28;20478;-66
2023/08/10 07:25:05;;;;;;;6.13;4.07;;;19.10;1.00;;;;;;4978156;28;20596;-66
2023/08/10 07:27:33;;;;;;;8.00;4.10;;;19.30;1.00;;;;;;4979067;28;20470;-67
2023/08/10 07:30:01;;;;;;;7.40;5.07;;;19.40;1.00;;;;;;4978740;28;20472;-66
2023/08/10 07:32:28;;;;;;;6.23;4.60;;;19.50;1.00;;;;;;4977586;28;20525;-66
2023/08/10 07:34:56;;;;;;;9.20;4.60;;;19.70;1.00;;;;;;4957831;28;20455;-66
2023/08/10 07:37:24;;;;;;;7.37;4.90;;;20.00;1.00;;;;;;4957743;29;20502;-66
2023/08/10 07:39:53;;;;;;;10.33;5.77;;;20.00;1.00;;;;;;4957714;29;20462;-66
2023/08/10 07:42:20;;;;;;;7.83;4.40;;;20.20;1.00;;;;;;4957582;28;20467;-67
2023/08/10 07:44:48;;;;;;;5.87;3.73;;;20.50;1.00;;;;;;4957931;29;20597;-67
2023/08/10 07:47:15;;;;;;;10.60;4.10;;;20.60;1.00;;;;;;4958524;28;20980;-67
2023/08/10 07:49:43;;;;;;;5.20;4.00;;;20.70;1.00;;;;;;4972656;28;20481;-67
2023/08/10 07:52:11;;;;;;;7.10;4.30;;;20.40;1.00;;;;;;4974906;28;20481;-67
2023/08/10 07:54:38;;;;;;;6.17;4.33;;;20.90;1.00;;;;;;4978729;28;20489;-67
2023/08/10 07:57:07;;;;;;;6.67;3.70;;;21.10;1.00;;;;;;4978818;28;20465;-67
2023/08/10 07:59:34;;;;;;;7.47;3.47;;;21.20;1.00;;;;;;4975532;28;20824;-67
2023/08/10 08:02:02;;;;;;;5.43;4.17;;;20.90;99.90;;;;;;4974997;28;20903;-66
2023/08/10 08:04:29;;;;;;;9.03;4.33;;;21.00;99.90;;;;;;4963641;28;20549;-67
2023/08/10 08:06:56;;;;;;;13.07;4.97;;;21.00;1.00;;;;;;4977992;28;20497;-66
2023/08/10 08:09:24;;;;;;;5.07;3.60;;;20.80;99.90;;;;;;4978452;28;20461;-67
2023/08/10 08:11:51;;;;;;;6.83;3.60;;;20.90;1.00;;;;;;4978179;28;20462;-66
2023/08/10 08:14:20;;;;;;;6.47;4.07;;;21.40;99.90;;;;;;4977556;28;20548;-66
2023/08/10 08:16:47;;;;;;;7.23;3.77;;;21.90;1.00;;;;;;4977416;28;20486;-66
2023/08/10 08:19:14;;;;;;;5.47;3.60;;;21.80;99.90;;;;;;4976587;28;20540;-66
2023/08/10 08:21:42;;;;;;;4.70;3.13;;;21.90;99.90;;;;;;4969783;28;20517;-66
2023/08/10 08:24:09;;;;;;;6.10;3.83;;;21.90;99.90;;;;;;4959021;29;20470;-66
2023/08/10 08:26:38;;;;;;;7.20;4.17;;;22.40;99.90;;;;;;4958025;28;20553;-66
2023/08/10 08:29:05;;;;;;;6.70;3.33;;;22.70;99.90;;;;;;4962363;28;20482;-66
2023/08/10 08:31:35;;;;;;;8.00;3.60;;;22.90;99.90;;;;;;4959367;28;20541;-67
2023/08/10 08:34:03;;;;;;;6.77;3.70;;;22.80;99.90;;;;;;4959114;29;20513;-66
2023/08/10 08:36:30;;;;;;;5.17;3.40;;;22.80;99.90;;;;;;4958483;29;20459;-67
2023/08/10 08:38:58;;;;;;;5.00;3.40;;;23.00;99.90;;;;;;4958808;29;20803;-67
2023/08/10 08:41:28;;;;;;;3.60;3.20;;;22.40;99.90;;;;;;4959109;29;20561;-67
2023/08/10 08:43:57;;;;;;;6.20;2.90;;;22.10;99.90;;;;;;4959233;29;20466;-66
2023/08/10 08:46:29;;;;;;;4.17;2.90;;;22.10;99.90;;;;;;4958563;29;20499;-67
2023/08/10 08:48:58;;;;;;;4.43;3.07;;;22.00;99.90;;;;;;4959954;28;20462;-67
2023/08/10 08:51:25;;;;;;;4.17;2.97;;;22.00;99.90;;;;;;4959353;28;20991;-67
2023/08/10 08:53:54;;;;;;;4.53;3.37;;;22.30;99.90;;;;;;4958882;28;20832;-66
2023/08/10 08:56:21;;;;;;;4.20;2.83;;;22.50;99.90;;;;;;4958124;29;20458;-66
2023/08/10 08:58:49;;;;;;;6.40;2.50;;;22.20;99.90;;;;;;4958156;29;20910;-67
2023/08/10 09:01:17;;;;;;;3.60;2.77;;;22.80;99.90;;;;;;4958376;29;20509;-67
2023/08/10 09:03:45;;;;;;;3.60;2.30;;;23.00;99.90;;;;;;4958788;28;21196;-66
2023/08/10 09:06:14;;;;;;;3.80;2.53;;;23.60;99.90;;;;;;4958551;29;20504;-66
2023/08/10 09:08:42;;;;;;;2.97;2.53;;;23.60;99.90;;;;;;4957893;28;20770;-66
2023/08/10 09:11:10;;;;;;;3.10;2.80;;;23.40;99.90;;;;;;4958526;29;20438;-67
2023/08/10 09:13:37;;;;;;;4.07;3.00;;;23.60;99.90;;;;;;4975875;28;20887;-66
2023/08/10 09:16:06;;;;;;;2.87;2.43;;;23.50;99.90;;;;;;4973684;28;20481;-66
2023/08/10 09:18:34;;;;;;;3.67;2.37;;;23.60;99.90;;;;;;4969559;28;20560;-65
2023/08/10 09:21:16;;;;;;;3.70;2.70;;;23.70;99.90;;;;;;4961441;28;20455;-66
2023/08/10 09:23:45;;;;;;;2.90;2.60;;;24.10;99.90;;;;;;4967309;28;20550;-66
2023/08/10 09:26:16;;;;;;;6.37;2.63;;;24.30;99.90;;;;;;4974668;28;20500;-66
2023/08/10 09:28:44;;;;;;;3.07;2.77;;;24.40;99.90;;;;;;4971613;28;20514;-66
2023/08/10 09:31:13;;;;;;;5.53;2.23;;;24.40;99.90;;;;;;4969069;28;20454;-66
2023/08/10 09:33:40;;;;;;;4.20;2.87;;;24.00;99.90;;;;;;4975579;28;20497;-66
2023/08/10 09:36:09;;;;;;;4.13;2.73;;;23.40;99.90;;;;;;4962112;28;20885;-66
2023/08/10 09:38:38;;;;;;;3.27;2.43;;;23.00;99.90;;;;;;4961584;29;20517;-67
2023/08/10 09:41:09;;;;;;;3.77;2.70;;;23.80;99.90;;;;;;4962449;28;20459;-67
2023/08/10 09:43:37;;;;;;;4.47;2.97;;;24.30;99.90;;;;;;4961543;29;20904;-66
2023/08/10 09:46:06;;;;;;;3.97;3.17;;;24.30;99.90;;;;;;4961596;29;20494;-66
2023/08/10 09:48:37;;;;;;;4.93;2.87;;;24.20;99.90;;;;;;4971637;28;20822;-67
2023/08/10 09:51:09;;;;;;;3.83;2.87;;;23.70;99.90;;;;;;4970052;28;20460;-67
2023/08/10 09:53:38;;;;;;;3.20;2.90;;;23.90;99.90;;;;;;4923311;29;20467;-67
2023/08/10 09:56:07;;;;;;;3.00;2.80;;;24.30;99.90;;;;;;4923113;29;20453;-66
2023/08/10 09:58:36;;;;;;;2.50;2.10;;;23.80;99.90;;;;;;4922393;29;20465;-66
2023/08/10 10:01:04;;;;;;;3.30;2.97;;;24.00;99.90;;;;;;4922201;29;20468;-66
2023/08/10 10:03:33;;;;;;;2.97;2.77;;;23.90;99.90;;;;;;4923263;29;20558;-66
2023/08/10 10:06:01;;;;;;;3.97;2.83;;;23.60;99.90;;;;;;4920572;29;20941;-65
2023/08/10 10:08:30;;;;;;;3.63;2.77;;;24.20;99.90;;;;;;4920839;29;20523;-65
2023/08/10 10:11:00;;;;;;;4.33;3.20;;;24.20;99.90;;;;;;4936714;29;20483;-65
2023/08/10 10:13:28;;;;;;;3.80;2.60;;;23.20;99.90;;;;;;4944099;29;20495;-66
2023/08/10 10:15:56;;;;;;;4.60;2.67;;;24.30;99.90;;;;;;4940516;29;20953;-66
2023/08/10 10:18:25;;;;;;;5.43;3.00;;;25.00;99.90;;;;;;4940796;29;20558;-66
2023/08/10 10:20:53;;;;;;;3.43;3.13;;;25.70;99.90;;;;;;4940314;29;20463;-66
2023/08/10 10:23:22;;;;;;;4.63;3.00;;;23.90;99.90;;;;;;4940384;29;20755;-65
2023/08/10 10:26:02;;;;;;;3.10;2.80;;;23.60;99.90;;;;;;4940477;29;20591;-66
2023/08/10 10:28:31;;;;;;;4.77;2.60;;;24.20;99.90;;;;;;4939810;29;20559;-66
2023/08/10 10:31:08;;;;;;;3.90;2.50;;;24.50;99.90;;;;;;4940911;29;20463;-66
2023/08/10 10:33:38;;;;;;;4.00;2.70;;;25.30;99.90;;;;;;4941289;29;20771;-67
2023/08/10 10:36:08;;;;;;;5.67;2.63;;;25.30;99.90;;;;;;4941884;29;20468;-66
2023/08/10 10:38:35;;;;;;;3.37;2.77;;;25.30;99.90;;;;;;4943077;29;20471;-67
2023/08/10 10:41:14;;;;;;;4.40;3.10;;;26.10;99.90;;;;;;4941564;29;20511;-67
2023/08/10 10:43:41;;;;;;;4.33;3.07;;;26.80;99.90;;;;;;4941006;29;20467;-66
2023/08/10 10:46:09;;;;;;;3.00;2.60;;;25.40;99.90;;;;;;4942310;29;20496;-67
2023/08/10 10:48:37;;;;;;;3.70;3.10;;;26.10;99.90;;;;;;4942243;29;20468;-66
2023/08/10 10:51:05;;;;;;;4.13;3.10;;;26.60;99.90;;;;;;4941485;29;20467;-66
2023/08/10 10:53:34;;;;;;;4.23;3.30;;;26.30;99.90;;;;;;4960546;29;20491;-66
2023/08/10 10:56:03;;;;;;;3.60;2.90;;;26.80;99.90;;;;;;4960759;29;20557;-66
2023/08/10 10:58:32;;;;;;;4.73;3.67;;;27.00;99.90;;;;;;4960761;29;20489;-67
2023/08/10 11:00:59;;;;;;;3.40;3.10;;;27.40;99.90;;;;;;4958722;28;20462;-65
2023/08/10 11:03:30;;;;;;;3.57;3.17;;;26.30;99.90;;;;;;4956082;28;20483;-64
2023/08/10 11:05:57;;;;;;;5.00;3.27;;;26.80;99.90;;;;;;4960080;28;20505;-66
2023/08/10 11:08:24;;;;;;;3.33;3.00;;;26.50;99.90;;;;;;4960253;29;20755;-66
2023/08/10 11:10:52;;;;;;;3.97;3.60;;;27.00;99.90;;;;;;4960491;29;20881;-66
2023/08/10 11:13:24;;;;;;;4.00;3.50;;;27.30;99.90;;;;;;4960390;28;20489;-67
2023/08/10 11:15:53;;;;;;;3.30;3.00;;;27.80;99.90;;;;;;4960033;29;20506;-66
2023/08/10 11:18:20;;;;;;;4.63;2.93;;;27.60;99.90;;;;;;4959648;28;20505;-66
2023/08/10 11:20:51;;;;;;;3.90;3.40;;;27.60;99.90;;;;;;4960181;29;20467;-66
2023/08/10 11:23:18;;;;;;;3.83;3.53;;;27.50;99.90;;;;;;4961315;28;20477;-66
2023/08/10 11:25:49;;;;;;;4.87;3.20;;;28.30;99.90;;;;;;4958431;28;20504;-64
2023/08/10 11:28:19;;;;;;;4.60;3.77;;;28.10;99.90;;;;;;4958901;28;20470;-66
2023/08/10 11:30:46;;;;;;;4.37;3.30;;;28.60;99.90;;;;;;4958568;28;20772;-64
2023/08/10 11:33:16;;;;;;;6.80;3.53;;;28.60;99.90;;;;;;4970816;28;20508;-65
2023/08/10 11:35:49;;;;;;;3.83;3.43;;;25.30;99.90;;;;;;4961604;28;20477;-64
2023/08/10 11:38:16;;;;;;;3.70;3.37;;;23.20;99.90;;;;;;4964993;28;20761;-64
2023/08/10 11:40:44;;;;;;;3.80;3.40;;;22.50;99.90;;;;;;4970155;28;20498;-63
2023/08/10 11:43:15;;;;;;;3.97;3.57;;;22.50;99.90;;;;;;4959248;28;20462;-65
2023/08/10 11:45:43;;;;;;;4.20;3.80;;;23.10;99.90;;;;;;4959187;28;20488;-65
2023/08/10 11:48:13;;;;;;;3.90;3.50;;;24.10;99.90;;;;;;4959295;29;20470;-66
2023/08/10 11:50:43;;;;;;;4.53;4.13;;;24.80;99.90;;;;;;4959151;28;20907;-67
2023/08/10 11:53:12;;;;;;;5.40;3.87;;;24.90;99.90;;;;;;4958759;28;20593;-66
2023/08/10 11:55:44;;;;;;;3.83;3.43;;;24.40;99.90;;;;;;4958163;29;20892;-67
2023/08/10 11:58:13;;;;;;;4.10;3.70;;;25.20;99.90;;;;;;4959245;28;20462;-67
2023/08/10 12:00:42;;;;;;;4.23;3.77;;;25.80;99.90;;;;;;4959188;29;20902;-66
2023/08/10 12:03:12;;;;;;;6.00;3.40;;;26.70;99.90;;;;;;4958058;28;20486;-67
2023/08/10 12:05:47;;;;;;;4.20;3.70;;;27.70;99.90;;;;;;4959058;29;20473;-65
2023/08/10 12:08:16;;;;;;;4.13;3.57;;;27.80;99.90;;;;;;4971813;28;20794;-67
2023/08/10 12:10:47;;;;;;;3.93;3.20;;;28.20;99.90;;;;;;4977901;28;20461;-67
2023/08/10 12:13:16;;;;;;;6.80;4.17;;;28.20;99.90;;;;;;4978594;28;20552;-67
2023/08/10 12:15:47;;;;;;;4.60;3.83;;;27.70;99.90;;;;;;4977827;28;20485;-66
2023/08/10 12:18:16;;;;;;;4.97;3.60;;;27.20;99.90;;;;;;4978251;28;20868;-64
2023/08/10 12:20:45;;;;;;;5.20;3.63;;;26.30;99.90;;;;;;4976029;28;20481;-65
2023/08/10 12:23:14;;;;;;;6.57;4.23;;;26.50;99.90;;;;;;4976407;28;20465;-66
2023/08/10 12:25:44;;;;;;;4.53;3.70;;;25.60;99.90;;;;;;4976383;28;20548;-65
2023/08/10 12:28:12;;;;;;;4.70;3.53;;;24.40;99.90;;;;;;4977255;28;20450;-65
2023/08/10 12:30:39;;;;;;;4.50;3.83;;;24.70;99.90;;;;;;4959822;28;20475;-65
2023/08/10 12:33:11;;;;;;;5.13;4.40;;;23.40;99.90;;;;;;4967275;28;20436;-65
2023/08/10 12:35:38;;;;;;;5.37;4.30;;;23.80;99.90;;;;;;4976447;28;20568;-64
2023/08/10 12:38:09;;;;;;;5.40;4.03;;;24.00;99.90;;;;;;4976302;28;20589;-65
2023/08/10 12:40:37;;;;;;;5.93;4.47;;;24.10;99.90;;;;;;4961680;28;20466;-65
2023/08/10 12:43:05;;;;;;;5.30;3.53;;;23.30;99.90;;;;;;4956408;28;20829;-65
2023/08/10 12:45:33;;;;;;;3.93;3.53;;;23.80;99.90;;;;;;4957206;28;20494;-66
2023/08/10 12:48:01;;;;;;;6.37;3.83;;;25.00;99.90;;;;;;4956366;29;20538;-67
2023/08/10 12:50:28;;;;;;;5.40;4.07;;;26.40;99.90;;;;;;4956941;28;20899;-66
2023/08/10 12:52:56;;;;;;;4.73;3.33;;;27.30;99.90;;;;;;4956679;28;20593;-65
2023/08/10 12:55:25;;;;;;;4.47;3.97;;;27.20;99.90;;;;;;4956942;29;20469;-65